EW6013 Weather Reports


Display with metric or nautical units.
time (UTC)temp
F
wind
direction
speed
MPH
gust
MPH
rain 1hr
in
rain 24hr
in
rain mn
in
humidity
%
barometer
mb
20180925233216 60 0.0 0.0 0.12 1.16 1.15 98 1020.4
20180925232716 60 0.0 0.0 0.12 1.16 1.15 98 1020.5
20180925232216 60 0.0 0.0 0.15 1.15 1.14 98 1020.6
20180925231717 60 0.0 0.0 0.16 1.15 1.14 98 1020.5
20180925231216 60 0.0 0.0 0.19 1.15 1.14 98 1020.6
20180925230717 60 0.0 0.0 0.20 1.14 1.13 98 1020.6
20180925230216 60 0.0 0.0 0.22 1.14 1.13 99 1020.5
20180925225716 60 0.0 0.0 0.23 1.14 1.13 99 1020.6
20180925225216 60 0.0 0.0 0.21 1.12 1.12 99 1020.8
20180925224716 60 0.0 0.0 0.18 1.08 1.09 99 1020.9
20180925224216 60 0.0 0.0 0.18 1.08 1.08 99 1020.9
20180925223716 60 0.0 0.0 0.16 1.06 1.06 99 1021.1
20180925223216 60 0.0 0.0 0.14 1.04 1.04 98 1021.1
20180925222716 60 0.0 0.0 0.15 1.03 1.03 98 1021.1
20180925222216 60 0.0 0.0 0.12 1.00 1.00 98 1021.2
20180925221716 60 0.0 0.0 0.10 0.98 0.98 98 1021.2
20180925221216 60 0.0 0.0 0.08 0.96 0.96 98 1021.2
20180925220716 60 0.0 0.0 0.08 0.94 0.94 98 1021.3
20180925220216 60 0.0 0.0 0.08 0.92 0.92 98 1021.4
20180925215716 60 0.0 0.0 0.11 0.91 0.91 98 1021.5
20180925215216 60 0.0 1.0 0.11 0.90 0.90 98 1021.6
20180925214716 60 0.0 0.0 0.12 0.90 0.90 98 1021.7
20180925214216 59 0.0 1.0 0.12 0.89 0.89 98 1021.7
20180925213716 59 0.0 1.0 0.12 0.89 0.89 98 1021.7
20180925213216 59 212 0.0 1.0 0.14 0.89 0.89 98 1021.8
20180925212716 59 0.0 0.0 0.13 0.87 0.88 98 1021.9
20180925212216 59 0.0 0.0 0.15 0.87 0.88 98 1022.0
20180925211716 59 257 0.0 1.0 0.17 0.87 0.88 98 1022.1
20180925211216 59 0.0 0.0 0.17 0.87 0.87 98 1022.3
20180925210717 59 355 0.0 2.0 0.18 0.85 0.85 98 1022.4
20180925210216 59 0.0 0.0 0.18 0.83 0.83 98 1022.6
20180925205716 59 32 0.0 2.0 0.17 0.79 0.80 98 1022.6
20180925205216 59 59 0.0 3.0 0.20 0.79 0.79 98 1022.6
20180925204716 59 0.0 1.0 0.24 0.78 0.78 98 1022.5
20180925204216 59 355 0.0 1.0 0.27 0.77 0.77 98 1022.6
20180925203716 59 357 0.0 2.0 0.28 0.76 0.76 98 1022.7
20180925203216 59 0.0 0.0 0.30 0.75 0.75 98 1022.8
20180925202716 59 273 0.0 1.0 0.32 0.74 0.74 98 1022.8
20180925202217 59 314 0.0 2.0 0.32 0.72 0.72 98 1023.0
20180925201716 59 0.0 0.0 0.32 0.70 0.70 98 1023.2
20180925201216 59 175 0.0 2.0 0.33 0.69 0.69 98 1023.4
20180925200716 59 262 0.0 4.0 0.33 0.67 0.67 98 1023.5
20180925200216 59 0.0 0.0 0.33 0.64 0.64 98 1023.6
20180925195716 59 220 1.0 3.0 0.33 0.62 0.62 98 1023.9
20180925195216 59 20 0.0 2.0 0.30 0.58 0.59 98 1023.9
20180925194716 59 200 0.0 2.0 0.27 0.54 0.54 98 1024.0
20180925194216 59 186 1.0 5.0 0.25 0.50 0.50 98 1024.2
20180925193716 59 171 1.0 4.0 0.25 0.48 0.48 98 1024.3
20180925193216 59 71 1.0 2.0 0.23 0.44 0.44 98 1024.4
20180925192716 59 286 0.0 1.0 0.20 0.41 0.42 98 1024.5
20180925192216 58 50 1.0 2.0 0.19 0.40 0.40 98 1024.5
20180925191716 58 268 1.0 3.0 0.16 0.37 0.38 98 1024.6
20180925191216 58 27 0.0 2.0 0.15 0.35 0.35 98 1024.6
20180925190716 58 358 1.0 2.0 0.12 0.33 0.33 98 1024.8
20180925190216 58 331 0.0 3.0 0.11 0.31 0.31 98 1024.8
20180925185716 58 0.0 1.0 0.08 0.29 0.28 99 1024.9
20180925185216 58 12 1.0 3.0 0.08 0.28 0.28 99 1024.9
20180925184716 58 0.0 0.0 0.06 0.26 0.26 99 1024.9
20180925184216 58 0.0 0.0 0.04 0.24 0.24 99 1025.0
20180925183715 58 309 0.0 2.0 0.03 0.22 0.22 99 1025.5
20180925183216 58 340 0.0 2.0 0.02 0.20 0.21 99 1025.6
20180925182715 58 353 1.0 2.0 0.02 0.20 0.21 99 1025.6
20180925182216 57 338 0.0 1.0 0.04 0.20 0.21 99 1025.7
20180925181819 57 0.0 2.0 0.04 0.20 0.21 99 1025.9
20180925181216 56 302 1.0 3.0 0.04 0.20 0.20 98 1026.0
20180925180716 56 298 0.0 2.0 0.05 0.20 0.20 98 1026.2
20180925180215 56 298 0.0 3.0 0.05 0.20 0.20 98 1026.0
20180925175716 55 340 0.0 2.0 0.07 0.20 0.20 98 1026.2
20180925175216 55 0.0 0.0 0.08 0.20 0.20 98 1026.4
20180925174715 55 0.0 0.0 0.08 0.20 0.20 98 1026.6
20180925174215 55 0.0 1.0 0.08 0.20 0.20 98 1026.7
20180925173715 54 0.0 0.0 0.08 0.19 0.19 98 1026.8
20180925173215 54 0.0 0.0 0.08 0.18 0.18 98 1027.0
20180925172715 54 340 0.0 1.0 0.08 0.18 0.18 98 1027.0
20180925172215 54 0.0 0.0 0.08 0.16 0.17 98 1027.2
20180925171715 54 0.0 0.0 0.07 0.16 0.16 98 1027.3
20180925171215 54 0.0 0.0 0.07 0.15 0.15 98 1027.5
20180925170715 53 0.0 0.0 0.06 0.14 0.14 98 1027.8
20180925170216 53 0.0 0.0 0.06 0.14 0.14 98 1027.8
20180925165716 53 0.0 0.0 0.04 0.12 0.13 98 1027.9
20180925165215 53 0.0 0.0 0.04 0.12 0.12 98 1027.9
20180925164715 53 0.0 0.0 0.04 0.12 0.12 97 1028.1
20180925164215 53 0.0 0.0 0.04 0.11 0.11 97 1028.2
20180925163715 52 0.0 0.0 0.03 0.10 0.10 97 1028.3
20180925163215 52 340 0.0 1.0 0.04 0.10 0.10 97 1028.4
20180925162715 52 340 0.0 2.0 0.04 0.10 0.10 98 1028.6
20180925162215 52 340 0.0 2.0 0.02 0.08 0.09 97 1028.9
20180925161715 52 340 0.0 2.0 0.02 0.08 0.09 97 1028.9
20180925161215 52 340 1.0 2.0 0.01 0.08 0.08 97 1029.0
20180925160715 51 0.0 0.0 0.01 0.08 0.08 97 1029.1
20180925160215 51 340 0.0 1.0 0.01 0.08 0.08 97 1029.1
20180925155715 51 0.0 0.0 0.03 0.08 0.08 97 1029.2
20180925155215 51 340 0.0 1.0 0.02 0.07 0.07 97 1029.2
20180925154715 51 0.0 1.0 0.03 0.07 0.07 97 1029.3
20180925154215 51 336 1.0 3.0 0.03 0.07 0.07 97 1029.4
20180925153715 50 324 1.0 2.0 0.03 0.07 0.07 97 1029.5
20180925153215 50 0.0 0.0 0.02 0.06 0.06 97 1029.6
20180925152715 50 0.0 1.0 0.02 0.06 0.06 97 1029.6
20180925152215 50 0.0 0.0 0.02 0.06 0.06 97 1029.8
20180925151715 50 309 0.0 2.0 0.03 0.06 0.06 97 1029.9
20180925151215 50 0.0 0.0 0.03 0.06 0.06 97 1030.0
20180925150715 49 287 0.0 1.0 0.03 0.06 0.06 96 1030.0
20180925150215 49 0.0 0.0 0.03 0.06 0.06 96 1030.1
20180925145715 49 0.0 0.0 0.01 0.04 0.05 96 1030.1
20180925145215 49 0.0 0.0 0.01 0.04 0.05 96 1030.2
20180925144715 49 0.0 0.0 0.00 0.04 0.04 96 1030.2
20180925144215 49 0.0 0.0 0.01 0.04 0.04 96 1030.3
20180925143715 49 0.0 0.0 0.01 0.04 0.04 96 1030.3
20180925143216 49 0.0 0.0 0.01 0.04 0.04 95 1030.4
20180925142715 49 0.0 0.0 0.01 0.04 0.04 95 1030.4
20180925142215 49 0.0 0.0 0.01 0.04 0.04 96 1030.6
20180925141715 49 0.0 0.0 0.01 0.03 0.03 96 1030.6
20180925141215 48 65 0.0 1.0 0.01 0.03 0.03 95 1030.8
20180925140715 48 0.0 0.0 0.01 0.03 0.03 95 1030.8
20180925140215 48 0.0 0.0 0.01 0.03 0.03 95 1030.9
20180925135715 48 0.0 0.0 0.03 0.03 0.03 95 1030.9
20180925135215 48 0.0 0.0 0.03 0.03 0.03 95 1031.0
20180925134715 48 0.0 0.0 0.03 0.03 0.03 95 1031.0
20180925134215 48 0.0 0.0 0.02 0.02 0.02 95 1031.0
20180925133715 48 0.0 0.0 0.02 0.02 0.02 95 1031.1
20180925133215 48 0.0 0.0 0.02 0.02 0.02 94 1031.1
20180925132715 47 0.0 0.0 0.02 0.02 0.02 94 1031.2
20180925132215 47 0.0 0.0 0.02 0.02 0.02 94 1031.2
20180925131715 47 0.0 0.0 0.01 0.01 0.01 93 1031.2
20180925131215 47 0.0 0.0 0.01 0.01 0.01 93 1031.3
20180925130715 47 65 0.0 2.0 0.01 0.01 0.01 92 1031.2
20180925130215 47 65 0.0 1.0 0.01 0.01 0.01 92 1031.2
20180925125715 47 0.0 0.0 0.00 0.00 0.00 92 1031.3
20180925125215 47 0.0 0.0 0.00 0.00 0.00 92 1031.2
20180925124715 47 0.0 0.0 0.00 0.00 0.00 91 1031.2
20180925124215 46 0.0 1.0 0.00 0.00 0.00 90 1031.1
20180925123715 46 65 0.0 1.0 0.00 0.00 0.00 90 1031.1
20180925123214 46 66 0.0 2.0 0.00 0.00 0.00 90 1031.1
20180925122715 46 0.0 0.0 0.00 0.00 0.00 90 1031.0
20180925122215 46 0.0 0.0 0.00 0.00 0.00 90 1031.1
20180925121715 46 0.0 0.0 0.00 0.00 0.00 90 1031.1
20180925121215 46 0.0 0.0 0.00 0.00 0.00 90 1031.1
20180925120717 45 0.0 0.0 0.00 0.00 0.00 91 1031.2
20180925120217 45 0.0 0.0 0.00 0.00 0.00 90 1031.2
20180925115717 45 0.0 0.0 0.00 0.00 0.00 91 1031.2
20180925115217 45 0.0 0.0 0.00 0.00 0.00 91 1031.2
20180925114717 45 0.0 0.0 0.00 0.00 0.00 91 1031.2
20180925114217 45 0.0 0.0 0.00 0.00 0.00 92 1031.3
20180925113717 44 0.0 0.0 0.00 0.00 0.00 91 1031.3
20180925113217 44 0.0 0.0 0.00 0.00 0.00 91 1031.4
20180925112717 44 65 0.0 1.0 0.00 0.00 0.00 91 1031.4
20180925112217 44 66 0.0 2.0 0.00 0.00 0.00 91 1031.5
20180925111216 44 0.0 0.0 0.00 0.00 0.00 92 1031.8
20180925110717 44 0.0 0.0 0.00 0.00 0.00 93 1031.9
20180925110217 43 0.0 0.0 0.00 0.00 0.00 92 1032.0
20180925105716 43 0.0 0.0 0.00 0.00 0.00 93 1032.0
20180925105216 43 0.0 0.0 0.00 0.00 0.00 93 1032.0
20180925104716 43 0.0 0.0 0.00 0.00 0.00 93 1032.0
20180925104216 43 57 0.0 1.0 0.00 0.00 0.00 94 1032.0
20180925103716 43 0.0 0.0 0.00 0.00 0.00 94 1032.1
20180925103216 43 0.0 0.0 0.00 0.00 0.00 94 1032.1
20180925102716 43 0.0 0.0 0.00 0.00 0.00 94 1032.1
20180925102216 43 0.0 0.0 0.00 0.00 0.00 94 1032.0
20180925101716 43 0.0 0.0 0.00 0.00 0.00 95 1032.1
20180925101216 43 0.0 0.0 0.00 0.00 0.00 95 1032.1
20180925100716 43 57 0.0 2.0 0.00 0.00 0.00 94 1032.0
20180925100217 42 0.0 0.0 0.00 0.00 0.00 95 1032.1
20180925095716 42 0.0 0.0 0.00 0.00 0.00 95 1032.1
20180925095216 42 0.0 0.0 0.00 0.00 0.00 94 1032.1
20180925094716 42 0.0 0.0 0.00 0.00 0.00 94 1032.1
20180925094217 42 0.0 0.0 0.00 0.00 0.00 94 1032.1
20180925093725 42 0.0 0.0 0.00 0.00 0.00 94 1032.0
20180925093216 43 0.0 0.0 0.00 0.00 0.00 95 1032.0
20180925092716 43 0.0 0.0 0.00 0.00 0.00 94 1032.0
20180925092219 43 0.0 0.0 0.00 0.00 0.00 94 1032.0
20180925091720 43 0.0 0.0 0.00 0.00 0.00 95 1031.9
20180925091216 43 0.0 0.0 0.00 0.00 0.00 95 1031.9
20180925090716 43 0.0 0.0 0.00 0.00 0.00 95 1031.9
20180925090216 43 0.0 0.0 0.00 0.00 0.00 95 1032.0
20180925085716 43 0.0 0.0 0.00 0.00 0.00 95 1032.1
20180925085216 43 0.0 0.0 0.00 0.00 0.00 95 1032.0
20180925084716 43 0.0 0.0 0.00 0.00 0.00 95 1032.1
20180925084216 43 0.0 0.0 0.00 0.00 0.00 95 1032.0
20180925083716 43 0.0 0.0 0.00 0.00 0.00 95 1031.9
20180925083216 43 0.0 0.0 0.00 0.00 0.00 95 1032.0
20180925082716 43 0.0 0.0 0.00 0.00 0.00 95 1032.0
20180925082216 43 0.0 0.0 0.00 0.00 0.00 95 1032.0
20180925081716 43 0.0 0.0 0.00 0.00 0.00 95 1032.0
20180925081216 43 0.0 0.0 0.00 0.00 0.00 95 1032.0
20180925080716 43 0.0 0.0 0.00 0.00 0.00 95 1032.2
20180925080217 43 0.0 0.0 0.00 0.00 0.00 95 1032.3
20180925075716 42 0.0 0.0 0.00 0.00 0.00 95 1032.3
20180925075216 42 0.0 0.0 0.00 0.00 0.00 95 1032.5
20180925074716 42 0.0 0.0 0.00 0.00 0.00 95 1032.4
20180925074216 42 0.0 0.0 0.00 0.00 0.00 95 1032.4
20180925073716 42 0.0 0.0 0.00 0.00 0.00 95 1032.4
20180925073216 42 0.0 0.0 0.00 0.00 0.00 95 1032.4
20180925072716 42 0.0 0.0 0.00 0.00 0.00 95 1032.5
20180925072216 42 0.0 0.0 0.00 0.00 0.00 95 1032.7
20180925071716 42 0.0 0.0 0.00 0.00 0.00 95 1032.7
20180925071216 42 0.0 0.0 0.00 0.00 0.00 95 1032.7
20180925070716 42 0.0 0.0 0.00 0.00 0.00 94 1032.8
20180925070216 42 0.0 0.0 0.00 0.00 0.00 94 1032.8
20180925065716 42 0.0 0.0 0.00 0.00 0.00 94 1032.9
20180925065216 42 0.0 0.0 0.00 0.00 0.00 94 1033.0
20180925064716 43 0.0 0.0 0.00 0.00 0.00 94 1033.0
20180925064216 43 0.0 0.0 0.00 0.00 0.00 94 1033.1
20180925063716 43 0.0 0.0 0.00 0.00 0.00 94 1033.2
20180925063216 43 0.0 0.0 0.00 0.00 0.00 94 1033.1
20180925062716 43 0.0 0.0 0.00 0.00 0.00 94 1033.2
20180925062216 43 0.0 0.0 0.00 0.00 0.00 94 1033.2
20180925061716 43 0.0 0.0 0.00 0.00 0.00 94 1033.1
20180925061216 43 0.0 0.0 0.00 0.00 0.00 94 1033.1
20180925060716 43 0.0 0.0 0.00 0.00 0.00 94 1033.2
20180925060216 43 0.0 0.0 0.00 0.00 0.00 94 1033.2
20180925055716 43 0.0 0.0 0.00 0.00 0.00 94 1033.3
20180925055216 43 0.0 0.0 0.00 0.00 0.00 94 1033.4
20180925054716 43 0.0 0.0 0.00 0.00 0.00 94 1033.6
20180925054216 43 0.0 0.0 0.00 0.00 0.00 94 1033.5
20180925053716 43 0.0 0.0 0.00 0.00 0.00 94 1033.6
20180925053216 43 0.0 0.0 0.00 0.00 0.00 94 1033.7
20180925052715 43 0.0 0.0 0.00 0.00 0.00 94 1033.8
20180925052216 43 0.0 0.0 0.00 0.00 0.00 93 1033.8
20180925051716 43 0.0 0.0 0.00 0.00 0.00 93 1033.7
20180925051215 43 0.0 0.0 0.00 0.00 0.00 93 1033.9
20180925050716 43 0.0 0.0 0.00 0.00 0.00 93 1033.9
20180925050215 43 0.0 0.0 0.00 0.00 0.00 93 1033.8
20180925045715 43 0.0 0.0 0.00 0.00 0.00 93 1033.6
20180925045216 43 0.0 0.0 0.00 0.00 0.00 92 1033.7
20180925044715 43 0.0 0.0 0.00 0.00 0.00 92 1033.8
20180925044216 43 0.0 0.0 0.00 0.00 0.00 92 1033.8
20180925043715 43 0.0 0.0 0.00 0.00 0.00 92 1033.8
20180925043215 44 0.0 0.0 0.00 0.00 0.00 92 1033.9
20180925042716 44 0.0 0.0 0.00 0.00 0.00 91 1034.0
20180925042216 44 0.0 0.0 0.00 0.00 0.00 91 1034.1
20180925041715 44 0.0 0.0 0.00 0.00 0.00 91 1034.1
20180925041215 44 0.0 0.0 0.00 0.00 0.00 91 1034.2
20180925040715 44 0.0 0.0 0.00 0.00 0.00 91 1034.2
20180925040216 44 0.0 0.0 0.00 0.00 0.00 91 1034.3
20180925035715 44 0.0 0.0 0.00 0.00 0.00 91 1034.4
20180925035215 44 0.0 0.0 0.00 0.00 0.00 90 1034.4
20180925034715 44 0.0 0.0 0.00 0.00 0.00 90 1034.3
20180925034215 45 0.0 0.0 0.00 0.00 0.00 89 1034.2
20180925033715 45 0.0 0.0 0.00 0.00 0.00 89 1034.4
20180925033215 45 0.0 0.0 0.00 0.00 0.00 89 1034.5
20180925032715 45 57 0.0 2.0 0.00 0.00 0.00 89 1034.5
20180925032215 45 0.0 0.0 0.00 0.00 0.00 88 1034.3
20180925031715 45 0.0 0.0 0.00 0.00 0.00 88 1034.2
20180925031215 45 0.0 0.0 0.00 0.00 0.00 88 1034.4
20180925030715 45 0.0 0.0 0.00 0.00 0.00 88 1034.6
20180925030215 45 0.0 0.0 0.00 0.00 0.00 87 1034.6
20180925025715 45 57 0.0 1.0 0.00 0.00 0.00 87 1034.5
20180925025215 45 0.0 0.0 0.00 0.00 0.00 86 1034.4
20180925024715 45 0.0 0.0 0.00 0.00 0.00 86 1034.5
20180925024215 46 0.0 0.0 0.00 0.00 0.00 86 1034.6
20180925023715 46 0.0 0.0 0.00 0.00 0.00 85 1034.6
20180925023215 46 57 0.0 1.0 0.00 0.00 0.00 85 1034.6
20180925022715 46 0.0 0.0 0.00 0.00 0.00 85 1034.5
20180925022215 46 0.0 0.0 0.00 0.00 0.00 85 1034.6
20180925021715 46 0.0 0.0 0.00 0.00 0.00 85 1034.4
20180925021215 47 0.0 0.0 0.00 0.00 0.00 85 1034.4
20180925020715 47 0.0 0.0 0.00 0.00 0.00 84 1034.5
20180925020215 47 57 0.0 1.0 0.00 0.00 0.00 84 1034.4
20180925015715 47 0.0 0.0 0.00 0.00 0.00 84 1034.4
20180925015215 47 0.0 0.0 0.00 0.00 0.00 84 1034.4
20180925014715 47 0.0 1.0 0.00 0.00 0.00 84 1034.3
20180925014215 47 0.0 0.0 0.00 0.00 0.00 83 1034.4
20180925013715 47 0.0 0.0 0.00 0.00 0.00 84 1034.2
20180925013215 47 0.0 0.0 0.00 0.00 0.00 83 1034.3
20180925012715 47 57 0.0 1.0 0.00 0.00 0.00 83 1034.3
20180925012215 48 0.0 0.0 0.00 0.00 0.00 84 1034.5
20180925011715 48 0.0 0.0 0.00 0.00 0.00 83 1034.5
20180925011215 48 0.0 0.0 0.00 0.00 0.00 83 1034.4
20180925010715 48 0.0 0.0 0.00 0.00 0.00 83 1034.4
20180925010215 48 0.0 0.0 0.00 0.00 0.00 82 1034.5
20180925005715 48 0.0 0.0 0.00 0.00 0.00 82 1034.4
20180925005215 48 57 0.0 1.0 0.00 0.00 0.00 82 1034.4
20180925004715 49 0.0 0.0 0.00 0.00 0.00 82 1034.3
20180925004215 49 0.0 1.0 0.00 0.00 0.00 82 1034.3
20180925003715 49 0.0 1.0 0.00 0.00 0.00 80 1034.2
20180925003215 49 0.0 0.0 0.00 0.00 0.00 81 1034.1
20180925002715 49 0.0 1.0 0.00 0.00 0.00 81 1034.1
20180925002215 49 57 0.0 1.0 0.00 0.00 0.00 80 1034.2
20180925001717 49 0.0 0.0 0.00 0.00 0.00 81 1034.2
20180925001217 49 0.0 0.0 0.00 0.00 0.00 80 1034.2
20180925000717 50 0.0 0.0 0.00 0.00 0.00 79 1034.0
20180925000216 50 0.0 1.0 0.00 0.00 0.00 79 1033.9
20180924235717 50 57 0.0 2.0 0.00 0.00 0.00 79 1033.7
20180924235217 50 0.0 1.0 0.00 0.00 0.00 79 1033.7
20180924234716 50 57 0.0 1.0 0.00 0.00 0.00 79 1033.6
20180924234216 50 0.0 0.0 0.00 0.00 0.00 79 1033.5
20180924233717 50 9 0.0 2.0 0.00 0.00 0.00 80 1033.5